createdAt,value
2018-11-28T00:01:51.010Z,41.33
2018-11-28T00:04:19.339Z,35.23
2018-11-28T00:06:47.656Z,37.40
2018-11-28T00:09:16.025Z,40.50
2018-11-28T00:11:44.385Z,39.05
2018-11-28T00:14:12.755Z,36.17
2018-11-28T00:16:41.084Z,38.50
2018-11-28T00:19:09.403Z,40.53
2018-11-28T00:21:37.741Z,41.18
2018-11-28T00:24:06.231Z,35.40
2018-11-28T00:26:34.573Z,41.53
2018-11-28T00:29:02.911Z,40.17
2018-11-28T00:31:31.239Z,41.00
2018-11-28T00:33:59.561Z,36.57
2018-11-28T00:36:27.900Z,44.73
2018-11-28T00:38:56.318Z,42.43
2018-11-28T00:41:24.738Z,41.03
2018-11-28T00:43:53.076Z,44.07
2018-11-28T00:46:21.402Z,43.80
2018-11-28T00:48:49.760Z,35.93
2018-11-28T00:51:18.120Z,42.08
2018-11-28T00:53:46.488Z,43.00
2018-11-28T00:56:14.813Z,45.93
2018-11-28T00:58:43.107Z,41.73
2018-11-28T01:01:11.553Z,44.30
2018-11-28T01:03:39.900Z,43.33
2018-11-28T01:06:08.258Z,46.60
2018-11-28T01:08:36.602Z,43.17
2018-11-28T01:11:04.892Z,41.60
2018-11-28T01:13:33.252Z,46.00
2018-11-28T01:16:01.570Z,47.33
2018-11-28T01:18:30.414Z,44.53
2018-11-28T01:20:58.743Z,40.47
2018-11-28T01:23:28.059Z,48.97
2018-11-28T01:25:56.884Z,44.73
2018-11-28T01:28:25.229Z,49.10
2018-11-28T01:30:53.561Z,47.47
2018-11-28T01:33:21.883Z,49.20
2018-11-28T01:35:50.224Z,38.13
2018-11-28T01:38:18.511Z,52.83
2018-11-28T01:40:46.805Z,46.83
2018-11-28T01:43:15.169Z,55.40
2018-11-28T01:45:43.459Z,49.77
2018-11-28T01:48:11.757Z,51.10
2018-11-28T01:50:40.210Z,42.87
2018-11-28T01:53:08.535Z,47.17
2018-11-28T01:55:36.979Z,44.27
2018-11-28T01:58:05.650Z,50.40
2018-11-28T02:00:33.986Z,55.93
2018-11-28T02:03:02.939Z,47.13
2018-11-28T02:05:31.278Z,45.77
2018-11-28T02:07:59.889Z,42.70
2018-11-28T02:10:28.229Z,42.63
2018-11-28T02:12:56.495Z,48.90
2018-11-28T02:15:26.024Z,44.97
2018-11-28T02:17:54.831Z,42.50
2018-11-28T02:20:23.170Z,43.90
2018-11-28T02:22:51.513Z,42.80
2018-11-28T02:25:19.806Z,40.57
2018-11-28T02:27:48.177Z,44.27
2018-11-28T02:30:19.175Z,45.47
2018-11-28T02:32:49.230Z,48.23
2018-11-28T02:35:18.155Z,42.77
2018-11-28T02:37:46.560Z,44.97
2018-11-28T02:40:16.790Z,41.47
2018-11-28T02:42:45.547Z,45.63
2018-11-28T02:45:16.830Z,39.40
2018-11-28T02:47:47.367Z,44.57
2018-11-28T02:50:16.144Z,44.37
2018-11-28T02:52:44.630Z,39.57
2018-11-28T02:55:15.806Z,38.10
2018-11-28T02:57:45.157Z,42.10
2018-11-28T03:00:15.696Z,46.37
2018-11-28T03:02:44.047Z,38.00
2018-11-28T03:05:13.189Z,40.30
2018-11-28T03:07:41.558Z,37.70
2018-11-28T03:10:11.695Z,42.47
2018-11-28T03:12:40.187Z,34.90
2018-11-28T03:15:16.292Z,41.27
2018-11-28T03:17:44.914Z,39.63
2018-11-28T03:20:13.320Z,42.97
2018-11-28T03:22:41.718Z,39.73
2018-11-28T03:25:11.073Z,39.90
2018-11-28T03:27:39.497Z,40.30
2018-11-28T03:30:12.341Z,38.90
2018-11-28T03:32:40.728Z,39.70
2018-11-28T03:35:10.441Z,39.17
2018-11-28T03:37:38.761Z,42.67
2018-11-28T03:40:07.219Z,38.37
2018-11-28T03:42:35.595Z,40.53
2018-11-28T03:45:04.475Z,37.03
2018-11-28T03:47:32.815Z,43.33
2018-11-28T03:50:01.137Z,41.30
2018-11-28T03:52:29.447Z,37.27
2018-11-28T03:54:57.787Z,37.00
2018-11-28T03:57:26.179Z,40.33
2018-11-28T03:59:54.516Z,42.08
2018-11-28T04:02:22.837Z,44.40
2018-11-28T04:04:52.093Z,39.13
2018-11-28T04:07:20.534Z,40.10
2018-11-28T04:09:48.821Z,38.13
2018-11-28T04:12:17.086Z,41.87
2018-11-28T04:14:45.437Z,40.27
2018-11-28T04:17:13.724Z,38.23
2018-11-28T04:19:42.029Z,40.33
2018-11-28T04:22:10.364Z,39.00
2018-11-28T04:24:38.692Z,44.97
2018-11-28T04:27:06.984Z,35.95
2018-11-28T04:29:35.305Z,43.33
2018-11-28T04:32:03.958Z,43.48
2018-11-28T04:34:32.287Z,42.27
2018-11-28T04:37:00.692Z,41.73
2018-11-28T04:39:29.118Z,41.77
2018-11-28T04:41:57.482Z,41.18
2018-11-28T04:44:25.795Z,42.07
2018-11-28T04:46:54.095Z,40.60
2018-11-28T04:49:22.395Z,38.03
2018-11-28T04:51:51.272Z,38.63
2018-11-28T04:54:19.586Z,38.73
2018-11-28T04:56:47.941Z,36.13
2018-11-28T04:59:16.399Z,40.10
2018-11-28T05:01:44.683Z,38.93
2018-11-28T05:04:12.984Z,40.40
2018-11-28T05:07:45.183Z,37.93
2018-11-28T05:10:29.260Z,35.45
2018-11-28T05:12:58.466Z,37.83
2018-11-28T05:15:31.673Z,33.00
2018-11-28T05:18:00.152Z,40.30
2018-11-28T05:20:30.521Z,38.87
2018-11-28T05:22:58.815Z,33.33
2018-11-28T05:25:28.207Z,38.88
2018-11-28T05:27:57.140Z,36.57
2018-11-28T05:30:26.452Z,39.60
2018-11-28T05:32:54.762Z,42.33
2018-11-28T05:35:26.970Z,37.05
2018-11-28T05:37:55.559Z,34.92
2018-11-28T05:40:24.471Z,34.23
2018-11-28T05:42:52.922Z,37.43
2018-11-28T05:45:21.257Z,39.00
2018-11-28T05:47:49.659Z,37.50
2018-11-28T05:50:19.091Z,33.87
2018-11-28T05:52:47.438Z,32.90
2018-11-28T05:55:16.401Z,37.58
2018-11-28T05:57:44.815Z,36.75
2018-11-28T06:00:21.929Z,35.37
2018-11-28T06:02:50.365Z,34.97
2018-11-28T06:05:18.738Z,36.17
2018-11-28T06:07:47.487Z,33.33
2018-11-28T06:10:16.803Z,37.38
2018-11-28T06:12:45.303Z,40.78
2018-11-28T06:15:13.738Z,36.70
2018-11-28T06:17:42.283Z,38.90
2018-11-28T06:20:13.089Z,40.17
2018-11-28T06:22:41.413Z,37.38
2018-11-28T06:25:17.141Z,35.83
2018-11-28T06:27:45.638Z,39.75
2018-11-28T06:30:18.113Z,41.48
2018-11-28T06:32:51.337Z,34.15
2018-11-28T06:35:14.931Z,40.52
2018-11-28T06:37:43.485Z,40.70
2018-11-28T06:40:14.583Z,37.85
2018-11-28T06:42:43.422Z,38.33
2018-11-28T06:45:13.820Z,41.73
2018-11-28T06:47:42.157Z,36.63
2018-11-28T06:50:12.622Z,37.17
2018-11-28T06:52:41.025Z,36.13
2018-11-28T06:55:10.762Z,36.20
2018-11-28T06:57:39.121Z,58.15
2018-11-28T07:00:14.725Z,35.43
2018-11-28T07:02:43.075Z,42.00
2018-11-28T07:05:11.987Z,33.85
2018-11-28T07:07:40.399Z,37.30
2018-11-28T07:10:13.853Z,35.95
2018-11-28T07:12:42.535Z,34.25
2018-11-28T07:15:11.988Z,39.30
2018-11-28T07:17:40.762Z,38.92
2018-11-28T07:20:16.534Z,38.75
2018-11-28T07:22:44.924Z,35.13
2018-11-28T07:25:14.313Z,37.85
2018-11-28T07:27:45.392Z,35.92
2018-11-28T07:30:21.891Z,37.28
2018-11-28T07:32:51.589Z,42.45
2018-11-28T07:35:19.903Z,38.53
2018-11-28T07:37:48.208Z,43.28
2018-11-28T07:40:17.886Z,35.20
2018-11-28T07:42:52.709Z,37.10
2018-11-28T07:45:21.028Z,37.65
2018-11-28T07:47:49.328Z,37.08
2018-11-28T07:50:17.638Z,41.85
2018-11-28T07:52:45.955Z,35.83
2018-11-28T07:55:14.338Z,39.38
2018-11-28T07:57:42.800Z,43.52
2018-11-28T08:00:14.290Z,36.98
2018-11-28T08:02:43.201Z,34.33
2018-11-28T08:05:12.273Z,37.45
2018-11-28T08:07:40.688Z,38.88
2018-11-28T08:10:20.963Z,38.67
2018-11-28T08:12:51.390Z,38.28
2018-11-28T08:15:19.774Z,38.55
2018-11-28T08:17:48.069Z,40.73
2018-11-28T08:20:16.405Z,41.25
2018-11-28T08:22:44.845Z,33.10
2018-11-28T08:25:14.185Z,36.68
2018-11-28T08:27:43.514Z,42.23
2018-11-28T08:30:21.805Z,34.03
2018-11-28T08:32:50.321Z,32.40
2018-11-28T08:35:18.661Z,36.28
2018-11-28T08:37:47.031Z,36.93
2018-11-28T08:40:17.047Z,46.15
2018-11-28T08:42:45.509Z,35.48
2018-11-28T08:45:15.115Z,35.73
2018-11-28T08:47:44.249Z,34.67
2018-11-28T08:50:16.962Z,32.40
2018-11-28T08:52:45.454Z,31.87
2018-11-28T08:55:14.062Z,34.00
2018-11-28T08:57:42.576Z,33.28
2018-11-28T09:00:16.071Z,33.45
2018-11-28T09:02:45.127Z,35.48
2018-11-28T09:05:14.497Z,30.85
2018-11-28T09:07:42.875Z,30.75
2018-11-28T09:10:15.117Z,29.35
2018-11-28T09:12:43.803Z,30.00
2018-11-28T09:15:15.382Z,40.45
2018-11-28T09:17:43.840Z,33.08
2018-11-28T09:20:13.171Z,33.60
2018-11-28T09:22:41.537Z,31.02
2018-11-28T09:25:12.313Z,28.95
2018-11-28T09:27:40.749Z,30.50
2018-11-28T09:30:11.481Z,28.98
2018-11-28T09:32:39.792Z,36.50
2018-11-28T09:35:09.274Z,30.10
2018-11-28T09:37:37.695Z,32.67
2018-11-28T09:40:09.810Z,28.90
2018-11-28T09:42:38.701Z,31.33
2018-11-28T09:45:08.488Z,29.50
2018-11-28T09:47:36.814Z,31.45
2018-11-28T09:50:07.950Z,34.33
2018-11-28T09:52:36.306Z,29.95
2018-11-28T09:55:06.255Z,29.02
2018-11-28T09:57:34.133Z,34.83
2018-11-28T10:00:02.493Z,29.27
2018-11-28T10:02:30.834Z,31.55
2018-11-28T10:05:02.875Z,29.45
2018-11-28T10:07:29.644Z,26.05
2018-11-28T10:09:58.141Z,26.73
2018-11-28T10:12:26.619Z,25.35
2018-11-28T10:14:55.147Z,27.13
2018-11-28T10:17:23.634Z,28.55
2018-11-28T10:19:51.935Z,32.30
2018-11-28T10:22:20.220Z,24.47
2018-11-28T10:24:48.528Z,26.97
2018-11-28T10:27:16.865Z,23.80
2018-11-28T10:29:45.153Z,31.25
2018-11-28T10:32:13.478Z,29.02
2018-11-28T10:34:41.845Z,29.92
2018-11-28T10:37:10.214Z,26.23
2018-11-28T10:39:38.525Z,27.55
2018-11-28T10:42:06.912Z,24.25
2018-11-28T10:44:35.231Z,25.23
2018-11-28T10:47:03.731Z,26.52
2018-11-28T10:49:32.217Z,30.82
2018-11-28T10:52:00.751Z,26.23
2018-11-28T10:54:29.111Z,26.75
2018-11-28T10:56:57.413Z,25.48
2018-11-28T10:59:25.727Z,22.40
2018-11-28T11:01:59.646Z,24.60
2018-11-28T11:04:32.202Z,23.10
2018-11-28T11:07:06.001Z,27.27
2018-11-28T11:09:39.706Z,24.30
2018-11-28T11:12:12.259Z,24.80
2018-11-28T11:14:45.902Z,22.35
2018-11-28T11:17:14.535Z,23.80
2018-11-28T11:19:42.882Z,28.07
2018-11-28T11:22:11.602Z,22.30
2018-11-28T11:24:40.115Z,22.45
2018-11-28T11:27:09.738Z,26.97
2018-11-28T11:29:38.321Z,24.12
2018-11-28T11:32:07.314Z,26.40
2018-11-28T11:34:35.699Z,31.30
2018-11-28T11:37:04.011Z,23.12
2018-11-28T11:39:32.327Z,23.15
2018-11-28T11:42:00.708Z,23.00
2018-11-28T11:44:29.039Z,24.02
2018-11-28T11:46:57.360Z,25.08
2018-11-28T11:49:25.703Z,25.62
2018-11-28T11:51:54.144Z,22.50
2018-11-28T11:54:22.461Z,20.90
2018-11-28T11:56:50.867Z,24.87
2018-11-28T11:59:19.214Z,20.90
2018-11-28T12:01:47.555Z,29.45
2018-11-28T12:04:15.901Z,22.30
2018-11-28T12:06:44.316Z,21.33
2018-11-28T12:09:12.745Z,23.87
2018-11-28T12:11:41.137Z,23.62
2018-11-28T12:14:09.516Z,19.77
2018-11-28T12:16:37.822Z,21.82
2018-11-28T12:19:06.244Z,24.85
2018-11-28T12:21:34.579Z,25.23
2018-11-28T12:24:02.973Z,23.20
2018-11-28T12:26:31.301Z,20.97
2018-11-28T12:28:59.710Z,21.97
2018-11-28T12:31:28.067Z,26.05
2018-11-28T12:33:56.521Z,20.20
2018-11-28T12:36:24.988Z,20.82
2018-11-28T12:38:53.460Z,20.72
2018-11-28T12:41:22.146Z,25.27
2018-11-28T12:43:50.619Z,21.27
2018-11-28T12:46:19.233Z,18.37
2018-11-28T12:48:47.834Z,20.25
2018-11-28T12:51:16.214Z,17.42
2018-11-28T12:53:44.596Z,18.25
2018-11-28T12:56:12.996Z,20.97
2018-11-28T12:58:41.309Z,21.70
2018-11-28T13:01:09.697Z,17.95
2018-11-28T13:03:38.045Z,21.77
2018-11-28T13:06:06.399Z,22.87
2018-11-28T13:08:34.745Z,27.17
2018-11-28T13:11:03.085Z,21.82
2018-11-28T13:13:31.479Z,19.42
2018-11-28T13:15:59.905Z,19.85
2018-11-28T13:18:28.472Z,23.02
2018-11-28T13:20:56.909Z,17.87
2018-11-28T13:23:25.602Z,19.73
2018-11-28T13:25:53.935Z,17.35
2018-11-28T13:28:22.968Z,19.98
2018-11-28T13:30:51.423Z,17.55
2018-11-28T13:33:19.790Z,20.02
2018-11-28T13:35:48.205Z,19.35
2018-11-28T13:38:16.539Z,16.02
2018-11-28T13:40:44.879Z,16.80
2018-11-28T13:43:13.294Z,19.00
2018-11-28T13:45:45.350Z,17.55
2018-11-28T13:48:14.191Z,16.80
2018-11-28T13:50:42.585Z,16.50
2018-11-28T13:53:13.483Z,18.90
2018-11-28T13:56:57.217Z,14.47
2018-11-28T13:58:22.543Z,21.17
2018-11-28T14:00:50.830Z,16.32
2018-11-28T14:03:19.131Z,15.00
2018-11-28T14:05:47.448Z,18.62
2018-11-28T14:08:15.763Z,23.00
2018-11-28T14:10:44.082Z,18.35
2018-11-28T14:13:13.123Z,17.60
2018-11-28T14:15:41.557Z,17.95
2018-11-28T14:18:14.370Z,19.65
2018-11-28T14:20:42.813Z,15.03
2018-11-28T14:23:11.141Z,22.62
2018-11-28T14:25:39.426Z,18.15
2018-11-28T14:28:07.946Z,17.57
2018-11-28T14:30:37.143Z,17.12
2018-11-28T14:33:05.467Z,18.07
2018-11-28T14:35:34.055Z,16.62
2018-11-28T14:38:02.376Z,15.63
2018-11-28T14:40:30.745Z,15.88
2018-11-28T14:42:59.639Z,15.15
2018-11-28T14:45:28.732Z,17.32
2018-11-28T14:47:57.090Z,19.75
2018-11-28T14:50:27.121Z,17.70
2018-11-28T14:52:56.597Z,16.67
2018-11-28T14:55:27.539Z,16.37
2018-11-28T14:57:55.933Z,18.27
2018-11-28T15:00:26.041Z,20.08
2018-11-28T15:03:00.516Z,16.20
2018-11-28T15:05:40.774Z,16.77
2018-11-28T15:08:11.759Z,17.92
2018-11-28T15:10:49.100Z,19.25
2018-11-28T15:13:17.449Z,18.45
2018-11-28T15:15:45.897Z,17.27
2018-11-28T15:18:14.479Z,18.55
2018-11-28T15:20:42.888Z,17.82
2018-11-28T15:23:12.354Z,126.22
2018-11-28T15:25:41.053Z,32.83
2018-11-28T15:28:09.347Z,16.75
2018-11-28T15:30:37.681Z,24.20
2018-11-28T15:33:06.023Z,18.10
2018-11-28T15:35:34.331Z,19.82
2018-11-28T15:38:02.695Z,18.45
2018-11-28T15:40:31.100Z,16.52
2018-11-28T15:42:59.433Z,20.80
2018-11-28T15:45:27.774Z,15.55
2018-11-28T15:47:56.432Z,16.40
2018-11-28T15:50:24.768Z,78.40
2018-11-28T15:52:53.151Z,15.83
2018-11-28T15:55:21.722Z,18.45
2018-11-28T15:57:50.151Z,27.00
2018-11-28T16:00:22.399Z,20.52
2018-11-28T16:02:50.018Z,14.98
2018-11-28T16:05:18.482Z,19.57
2018-11-28T16:07:47.047Z,16.77
2018-11-28T16:10:21.206Z,14.63
2018-11-28T16:12:49.773Z,14.28
2018-11-28T16:15:28.243Z,16.95
2018-11-28T16:17:56.609Z,14.23
2018-11-28T16:20:25.039Z,19.80
2018-11-28T16:22:53.439Z,22.85
2018-11-28T16:25:21.884Z,19.12
2018-11-28T16:27:50.367Z,18.55
2018-11-28T16:30:18.698Z,18.30
2018-11-28T16:32:47.135Z,21.95
2018-11-28T16:35:16.477Z,16.93
2018-11-28T16:37:44.773Z,17.52
2018-11-28T16:40:14.002Z,16.25
2018-11-28T16:42:42.407Z,21.35
2018-11-28T16:45:18.648Z,34.53
2018-11-28T16:47:48.592Z,21.30
2018-11-28T16:50:18.593Z,18.80
2018-11-28T16:52:47.295Z,19.32
2018-11-28T16:55:16.373Z,18.50
2018-11-28T16:57:50.356Z,15.88
2018-11-28T17:00:20.369Z,20.12
2018-11-28T17:02:48.722Z,15.08
2018-11-28T17:05:18.823Z,18.40
2018-11-28T17:07:47.456Z,18.82
2018-11-28T17:10:17.557Z,16.82
2018-11-28T17:12:47.250Z,19.02
2018-11-28T17:15:16.948Z,19.12
2018-11-28T17:17:45.547Z,22.82
2018-11-28T17:20:15.041Z,23.20
2018-11-28T17:22:43.749Z,19.95
2018-11-28T17:25:14.696Z,17.85
2018-11-28T17:27:43.170Z,16.75
2018-11-28T17:30:18.815Z,19.77
2018-11-28T17:32:43.181Z,20.32
2018-11-28T17:35:12.248Z,20.60
2018-11-28T17:37:40.610Z,19.48
2018-11-28T17:40:15.857Z,17.92
2018-11-28T17:42:45.334Z,19.77
2018-11-28T17:45:14.664Z,20.80
2018-11-28T17:47:43.100Z,20.08
2018-11-28T17:50:14.496Z,21.33
2018-11-28T17:52:44.576Z,21.93
2018-11-28T17:55:14.791Z,26.68
2018-11-28T17:57:43.148Z,21.77
2018-11-28T18:00:12.762Z,21.25
2018-11-28T18:02:41.284Z,23.02
2018-11-28T18:05:10.461Z,18.67
2018-11-28T18:07:39.019Z,20.52
2018-11-28T18:10:12.541Z,21.12
2018-11-28T18:13:44.187Z,23.62
2018-11-28T18:16:12.820Z,19.73
2018-11-28T18:18:41.256Z,20.25
2018-11-28T18:21:09.592Z,22.10
2018-11-28T18:23:38.283Z,22.77
2018-11-28T18:26:10.619Z,23.62
2018-11-28T18:28:39.262Z,27.73
2018-11-28T18:31:07.576Z,20.80
2018-11-28T18:33:35.988Z,22.55
2018-11-28T18:36:04.351Z,21.20
2018-11-28T18:38:32.991Z,21.37
2018-11-28T18:41:01.423Z,20.30
2018-11-28T18:43:29.928Z,23.65
2018-11-28T18:45:59.014Z,18.35
2018-11-28T18:48:28.257Z,20.50
2018-11-28T18:50:56.560Z,21.62
2018-11-28T18:53:24.938Z,25.45
2018-11-28T18:55:53.568Z,27.02
2018-11-28T18:58:21.978Z,25.77
2018-11-28T19:00:50.932Z,21.77
2018-11-28T19:03:19.581Z,21.93
2018-11-28T19:05:48.082Z,26.17
2018-11-28T19:08:16.540Z,24.02
2018-11-28T19:10:44.954Z,20.23
2018-11-28T19:13:13.336Z,22.93
2018-11-28T19:15:41.658Z,21.42
2018-11-28T19:18:10.033Z,24.55
2018-11-28T19:20:39.453Z,23.22
2018-11-28T19:23:07.734Z,35.63
2018-11-28T19:25:36.026Z,27.40
2018-11-28T19:28:04.331Z,22.65
2018-11-28T19:30:34.566Z,26.50
2018-11-28T19:33:02.999Z,24.95
2018-11-28T19:35:31.364Z,27.45
2018-11-28T19:37:59.936Z,24.82
2018-11-28T19:40:36.676Z,28.10
2018-11-28T19:43:05.078Z,23.47
2018-11-28T19:45:33.413Z,24.98
2018-11-28T19:48:01.807Z,26.52
2018-11-28T19:50:34.370Z,27.45
2018-11-28T19:53:02.769Z,22.20
2018-11-28T19:55:31.291Z,23.12
2018-11-28T19:57:59.826Z,23.83
2018-11-28T20:00:28.232Z,24.15
2018-11-28T20:02:56.746Z,25.20
2018-11-28T20:05:25.134Z,28.98
2018-11-28T20:07:53.506Z,22.48
2018-11-28T20:10:22.754Z,23.90
2018-11-28T20:12:51.387Z,22.93
2018-11-28T20:15:29.545Z,24.32
2018-11-28T20:17:58.999Z,24.32
2018-11-28T20:20:27.386Z,20.82
2018-11-28T20:22:55.779Z,24.12
2018-11-28T20:25:24.936Z,23.00
2018-11-28T20:27:55.451Z,23.22
2018-11-28T20:30:54.670Z,22.07
2018-11-28T20:33:23.015Z,26.85
2018-11-28T20:35:51.592Z,22.73
2018-11-28T20:38:24.355Z,25.08
2018-11-28T20:40:52.776Z,20.43
2018-11-28T20:43:21.242Z,19.92
2018-11-28T20:45:49.690Z,20.82
2018-11-28T20:48:18.083Z,19.23
2018-11-28T20:50:46.396Z,23.83
2018-11-28T20:53:17.836Z,25.32
2018-11-28T20:55:46.394Z,19.27
2018-11-28T20:58:14.892Z,17.40
2018-11-28T21:00:43.373Z,21.77
2018-11-28T21:03:11.783Z,18.48
2018-11-28T21:05:40.259Z,16.70
2018-11-28T21:08:09.618Z,19.87
2018-11-28T21:10:38.898Z,16.42
2018-11-28T21:13:10.662Z,20.70
2018-11-28T21:15:39.369Z,20.50
2018-11-28T21:18:11.714Z,16.73
2018-11-28T21:20:41.157Z,20.12
2018-11-28T21:23:11.854Z,15.80
2018-11-28T21:25:40.423Z,17.00
2018-11-28T21:28:08.854Z,17.73
2018-11-28T21:30:37.214Z,16.62
2018-11-28T21:33:06.602Z,62.23
2018-11-28T21:35:36.481Z,17.85
2018-11-28T21:38:04.803Z,16.42
2018-11-28T21:40:33.138Z,16.15
2018-11-28T21:43:01.532Z,16.05
2018-11-28T21:45:29.870Z,15.58
2018-11-28T21:47:58.189Z,15.55
2018-11-28T21:50:26.557Z,15.98
2018-11-28T21:52:54.975Z,15.78
2018-11-28T21:55:24.101Z,15.00
2018-11-28T21:57:52.628Z,15.32
2018-11-28T22:00:24.936Z,13.53
2018-11-28T22:02:53.350Z,15.25
2018-11-28T22:05:21.956Z,13.60
2018-11-28T22:07:50.372Z,16.87
2018-11-28T22:10:21.844Z,13.50
2018-11-28T22:12:50.370Z,15.35
2018-11-28T22:15:18.970Z,13.40
2018-11-28T22:18:01.935Z,12.18
2018-11-28T22:20:30.196Z,11.33
2018-11-28T22:22:58.508Z,13.38
2018-11-28T22:25:27.519Z,13.68
2018-11-28T22:27:55.923Z,12.80
2018-11-28T22:30:26.522Z,12.88
2018-11-28T22:32:55.146Z,11.55
2018-11-28T22:35:23.625Z,10.72
2018-11-28T22:37:51.976Z,10.90
2018-11-28T22:40:23.326Z,11.25
2018-11-28T22:42:52.370Z,10.98
2018-11-28T22:45:26.172Z,9.38
2018-11-28T22:47:54.638Z,9.40
2018-11-28T22:50:23.180Z,11.93
2018-11-28T22:52:51.575Z,11.33
2018-11-28T22:55:19.851Z,11.20
2018-11-28T22:57:48.184Z,12.13
2018-11-28T23:00:17.555Z,9.60
2018-11-28T23:02:55.688Z,8.35
2018-11-28T23:05:26.625Z,10.65
2018-11-28T23:07:55.904Z,10.38
2018-11-28T23:10:24.306Z,10.03
2018-11-28T23:12:52.636Z,11.00
2018-11-28T23:15:20.973Z,10.45
2018-11-28T23:17:54.733Z,9.70
2018-11-28T23:20:17.649Z,9.33
2018-11-28T23:22:46.022Z,10.45
2018-11-28T23:25:14.390Z,9.70
2018-11-28T23:27:42.695Z,11.73
2018-11-28T23:30:19.859Z,12.75
2018-11-28T23:32:48.923Z,11.20
2018-11-28T23:35:17.560Z,10.50
2018-11-28T23:37:47.132Z,10.50
2018-11-28T23:40:16.855Z,8.85
2018-11-28T23:42:45.233Z,12.90
2018-11-28T23:45:14.236Z,11.70
2018-11-28T23:47:42.687Z,12.53
2018-11-28T23:50:14.482Z,10.48
2018-11-28T23:52:43.044Z,11.43
2018-11-28T23:55:20.236Z,10.20
2018-11-28T23:57:48.694Z,10.75
